createdAt,value
2022-08-30T00:01:56.610Z,3.45
2022-08-30T00:06:58.312Z,3.75
2022-08-30T00:12:00.085Z,4.20
2022-08-30T00:17:01.752Z,3.63
2022-08-30T00:22:04.775Z,3.30
2022-08-30T00:27:06.544Z,3.90
2022-08-30T00:32:09.226Z,4.00
2022-08-30T00:37:10.898Z,3.50
2022-08-30T00:42:13.959Z,4.00
2022-08-30T00:47:16.086Z,4.10
2022-08-30T00:52:18.856Z,3.92
2022-08-30T00:57:20.939Z,4.43
2022-08-30T01:02:23.875Z,4.43
2022-08-30T01:07:26.269Z,4.82
2022-08-30T01:12:30.218Z,4.45
2022-08-30T01:17:32.051Z,5.07
2022-08-30T01:22:49.615Z,4.93
2022-08-30T01:28:01.645Z,5.28
2022-08-30T01:33:06.176Z,5.43
2022-08-30T01:38:08.202Z,5.97
2022-08-30T01:43:11.588Z,6.70
2022-08-30T01:48:13.495Z,5.53
2022-08-30T01:53:15.450Z,6.55
2022-08-30T01:58:17.396Z,6.40
2022-08-30T02:03:19.950Z,6.88
2022-08-30T02:08:22.691Z,7.07
2022-08-30T02:13:24.655Z,6.68
2022-08-30T02:18:27.025Z,6.80
2022-08-30T02:23:28.964Z,7.72
2022-08-30T02:28:30.647Z,6.10
2022-08-30T02:33:32.310Z,6.57
2022-08-30T02:38:34.769Z,6.72
2022-08-30T02:43:36.552Z,6.38
2022-08-30T02:48:38.395Z,6.55
2022-08-30T02:53:42.259Z,6.95
2022-08-30T02:58:45.099Z,6.75
2022-08-30T03:03:47.123Z,6.75
2022-08-30T03:08:48.872Z,6.63
2022-08-30T03:13:50.903Z,7.55
2022-08-30T03:18:52.692Z,7.05
2022-08-30T03:23:54.349Z,7.57
2022-08-30T03:28:56.105Z,7.97
2022-08-30T03:33:57.770Z,7.55
2022-08-30T03:38:59.441Z,8.13
2022-08-30T03:44:02.632Z,8.00
2022-08-30T03:49:05.646Z,8.35
2022-08-30T03:54:07.509Z,7.53
2022-08-30T03:59:09.194Z,7.22
2022-08-30T04:04:11.569Z,8.30
2022-08-30T04:09:13.632Z,7.75
2022-08-30T04:14:15.549Z,8.30
2022-08-30T04:19:18.058Z,9.38
2022-08-30T04:24:19.975Z,8.80
2022-08-30T04:29:22.600Z,8.55
2022-08-30T04:34:24.786Z,8.18
2022-08-30T04:39:26.586Z,10.57
2022-08-30T04:44:28.283Z,24.33
2022-08-30T04:49:33.123Z,10.05
2022-08-30T04:54:35.365Z,10.60
2022-08-30T04:59:39.391Z,9.02
2022-08-30T05:05:03.893Z,9.75
2022-08-30T05:10:10.966Z,9.48
2022-08-30T05:20:15.452Z,9.93
2022-08-30T05:25:19.573Z,8.55
2022-08-30T05:30:22.138Z,9.65
2022-08-30T05:35:25.875Z,8.20
2022-08-30T05:40:29.234Z,11.30
2022-08-30T05:45:31.108Z,8.38
2022-08-30T05:50:34.943Z,8.68
2022-08-30T05:55:41.185Z,9.45
2022-08-30T06:00:42.948Z,8.77
2022-08-30T06:05:44.773Z,6.80
2022-08-30T06:10:46.549Z,5.65
2022-08-30T06:15:49.651Z,5.95
2022-08-30T06:20:51.653Z,5.75
2022-08-30T06:25:53.866Z,4.93
2022-08-30T06:30:55.593Z,4.40
2022-08-30T06:36:06.163Z,5.35
2022-08-30T06:41:13.491Z,4.05
2022-08-30T06:46:18.572Z,3.85
2022-08-30T06:51:22.853Z,5.88
2022-08-30T06:56:27.377Z,3.20
2022-08-30T07:01:30.138Z,4.25
2022-08-30T07:06:32.619Z,3.25
2022-08-30T07:11:37.315Z,2.35
2022-08-30T07:16:39.020Z,2.58
2022-08-30T07:21:46.073Z,4.95
2022-08-30T07:26:51.699Z,4.05
2022-08-30T07:31:53.442Z,8.88
2022-08-30T07:36:55.164Z,3.22
2022-08-30T07:41:56.910Z,1.90
2022-08-30T07:46:58.645Z,1.70
2022-08-30T07:52:00.409Z,3.13
2022-08-30T07:57:02.153Z,2.15
2022-08-30T08:02:05.122Z,4.65
2022-08-30T08:07:06.962Z,2.88
2022-08-30T08:12:09.177Z,3.58
2022-08-30T08:17:11.048Z,3.75
2022-08-30T08:22:21.055Z,2.40
2022-08-30T08:27:24.727Z,2.42
2022-08-30T08:32:26.483Z,2.10
2022-08-30T08:37:28.266Z,2.03
2022-08-30T08:42:42.052Z,1.63
2022-08-30T08:48:22.905Z,1.88
2022-08-30T08:53:46.211Z,1.30
2022-08-30T08:58:52.335Z,1.52
2022-08-30T09:03:55.465Z,2.03
2022-08-30T09:08:57.408Z,2.22
2022-08-30T09:13:59.840Z,2.03
2022-08-30T09:19:02.194Z,2.55
2022-08-30T09:24:07.248Z,1.88
2022-08-30T09:29:17.109Z,2.42
2022-08-30T09:34:21.918Z,2.60
2022-08-30T09:39:30.182Z,1.80
2022-08-30T09:44:37.796Z,2.58
2022-08-30T09:49:45.570Z,1.88
2022-08-30T09:54:47.293Z,2.42
2022-08-30T10:00:00.641Z,1.90
2022-08-30T10:05:14.301Z,1.70
2022-08-30T10:10:36.686Z,0.93
2022-08-30T10:16:02.988Z,1.60
2022-08-30T10:21:15.528Z,2.35
2022-08-30T10:26:31.471Z,1.50
2022-08-30T10:31:59.345Z,1.75
2022-08-30T10:37:35.811Z,1.40
2022-08-30T10:42:40.088Z,2.37
2022-08-30T10:47:48.133Z,1.67
2022-08-30T10:52:59.522Z,1.70
2022-08-30T10:58:03.278Z,1.67
2022-08-30T11:03:40.210Z,2.15
2022-08-30T11:08:55.388Z,1.38
2022-08-30T11:14:01.236Z,2.40
2022-08-30T11:19:20.884Z,1.98
2022-08-30T11:24:24.486Z,1.75
2022-08-30T11:29:26.103Z,1.58
2022-08-30T11:34:49.471Z,1.83
2022-08-30T11:39:54.069Z,1.85
2022-08-30T11:45:25.384Z,2.40
2022-08-30T11:50:54.020Z,2.30
2022-08-30T11:56:21.213Z,2.35
2022-08-30T12:06:56.945Z,1.60
2022-08-30T12:11:58.651Z,1.42
2022-08-30T12:17:19.442Z,1.67
2022-08-30T12:22:23.837Z,1.88
2022-08-30T12:27:27.934Z,1.88
2022-08-30T12:32:44.144Z,8.07
2022-08-30T12:38:16.620Z,2.10
2022-08-30T12:43:49.658Z,596.58
2022-08-30T12:48:51.714Z,119.40
2022-08-30T12:53:53.587Z,4.90
2022-08-30T12:58:56.320Z,1.50
2022-08-30T13:04:13.439Z,2.60
2022-08-30T13:09:32.445Z,1.98
2022-08-30T13:14:43.775Z,1.90
2022-08-30T13:19:56.814Z,1.77
2022-08-30T13:24:59.218Z,2.20
2022-08-30T13:30:16.176Z,1.58
2022-08-30T13:35:17.936Z,1.83
2022-08-30T13:40:21.500Z,1.83
2022-08-30T13:50:45.055Z,1.80
2022-08-30T13:55:46.740Z,2.05
2022-08-30T14:00:50.491Z,1.60
2022-08-30T14:06:21.836Z,1.77
2022-08-30T14:11:22.329Z,2.10
2022-08-30T14:16:27.832Z,2.65
2022-08-30T14:21:30.312Z,1.50
2022-08-30T14:26:40.745Z,1.88
2022-08-30T14:31:43.451Z,1.65
2022-08-30T14:36:46.516Z,1.73
2022-08-30T14:41:52.125Z,1.85
2022-08-30T14:46:54.616Z,1.63
2022-08-30T14:51:56.517Z,1.55
2022-08-30T14:56:58.573Z,2.97
2022-08-30T15:02:00.328Z,1.80
2022-08-30T15:07:03.500Z,1.20
2022-08-30T15:12:05.552Z,1.38
2022-08-30T15:17:10.731Z,1.90
2022-08-30T15:22:12.533Z,1.67
2022-08-30T15:27:14.318Z,1.60
2022-08-30T15:32:16.536Z,1.77
2022-08-30T15:37:22.614Z,1.48
2022-08-30T15:42:24.439Z,1.65
2022-08-30T15:47:26.266Z,1.58
2022-08-30T15:52:28.868Z,1.67
2022-08-30T15:57:30.560Z,1.38
2022-08-30T16:02:33.104Z,1.70
2022-08-30T16:07:40.673Z,1.70
2022-08-30T16:12:42.769Z,1.38
2022-08-30T16:17:45.046Z,1.55
2022-08-30T16:22:47.026Z,1.52
2022-08-30T16:27:49.148Z,1.48
2022-08-30T16:32:51.175Z,1.60
2022-08-30T16:37:52.871Z,1.23
2022-08-30T16:42:58.925Z,1.20
2022-08-30T16:48:01.568Z,1.67
2022-08-30T16:53:03.882Z,1.33
2022-08-30T16:58:11.788Z,1.40
2022-08-30T17:08:18.812Z,1.30
2022-08-30T17:13:21.990Z,1.30
2022-08-30T17:18:24.716Z,1.73
2022-08-30T17:23:26.377Z,1.50
2022-08-30T17:28:28.832Z,1.60
2022-08-30T17:33:30.670Z,1.98
2022-08-30T17:38:32.661Z,1.48
2022-08-30T17:43:36.426Z,1.70
2022-08-30T17:48:39.869Z,1.40
2022-08-30T17:53:41.648Z,1.38
2022-08-30T17:58:43.464Z,1.73
2022-08-30T18:03:45.623Z,318.63
2022-08-30T18:08:47.351Z,448.67
2022-08-30T18:13:49.046Z,859.10
2022-08-30T18:18:57.047Z,728.42
2022-08-30T18:23:59.282Z,1.50
2022-08-30T18:29:01.428Z,1.90
2022-08-30T18:34:04.026Z,2.05
2022-08-30T18:39:05.861Z,1.48
2022-08-30T18:44:26.862Z,2.40
2022-08-30T18:54:53.146Z,1.58
2022-08-30T18:59:56.004Z,2.42
2022-08-30T19:04:59.108Z,1.80
2022-08-30T19:10:01.077Z,1.88
2022-08-30T19:15:10.686Z,2.08
2022-08-30T19:20:17.308Z,2.00
2022-08-30T19:25:21.504Z,1.50
2022-08-30T19:30:29.610Z,1.60
2022-08-30T19:35:31.923Z,1.70
2022-08-30T19:40:33.881Z,1.73
2022-08-30T19:45:35.967Z,1.85
2022-08-30T19:50:37.812Z,2.92
2022-08-30T19:55:40.270Z,1.50
2022-08-30T20:00:54.600Z,3.28
2022-08-30T20:06:02.905Z,1.30
2022-08-30T20:11:05.660Z,2.38
2022-08-30T20:16:09.613Z,1.92
2022-08-30T20:21:14.358Z,1.73
2022-08-30T20:24:29.590Z,1.50
2022-08-30T20:26:16.511Z,1.73
2022-08-30T20:31:18.834Z,2.00
2022-08-30T20:36:20.551Z,1.90
2022-08-30T20:41:23.290Z,1.88
2022-08-30T20:46:25.318Z,1.58
2022-08-30T20:51:27.764Z,1.98
2022-08-30T20:56:31.554Z,2.03
2022-08-30T21:01:35.818Z,1.90
2022-08-30T21:06:40.061Z,1.58
2022-08-30T21:11:44.621Z,1.80
2022-08-30T21:16:46.578Z,1.95
2022-08-30T21:21:48.524Z,1.70
2022-08-30T21:26:51.791Z,2.30
2022-08-30T21:31:53.718Z,2.10
2022-08-30T21:36:55.467Z,2.15
2022-08-30T21:41:57.241Z,2.08
2022-08-30T21:46:58.948Z,1.83
2022-08-30T21:52:00.619Z,1.80
2022-08-30T21:57:05.060Z,1.98
2022-08-30T22:02:06.752Z,1.80
2022-08-30T22:07:08.471Z,1.98
2022-08-30T22:12:10.657Z,2.03
2022-08-30T22:17:12.771Z,2.22
2022-08-30T22:22:14.661Z,3.00
2022-08-30T22:27:16.325Z,2.33
2022-08-30T22:32:18.169Z,2.70
2022-08-30T22:37:20.009Z,2.10
2022-08-30T22:42:21.905Z,2.00
2022-08-30T22:47:23.690Z,2.03
2022-08-30T22:52:25.898Z,2.25
2022-08-30T22:57:27.739Z,2.28
2022-08-30T23:02:29.494Z,2.38
2022-08-30T23:07:31.399Z,2.35
2022-08-30T23:12:36.845Z,1.90
2022-08-30T23:17:39.710Z,2.00
2022-08-30T23:22:41.583Z,2.05
2022-08-30T23:28:03.389Z,1.80
2022-08-30T23:33:23.616Z,1.98
2022-08-30T23:38:43.893Z,2.20
2022-08-30T23:44:04.342Z,2.55
2022-08-30T23:49:24.749Z,2.45
2022-08-30T23:54:45.186Z,2.17
